Date,TemperatureHighF,TemperatureAvgF,TemperatureLowF,DewpointHighF,DewpointAvgF,DewpointLowF,HumidityHigh,HumidityAvg,HumidityLow,PressureMaxIn,PressureMinIn,WindSpeedMaxMPH,WindSpeedAvgMPH,GustSpeedMaxMPH,PrecipitationSumIn
2013-11-1,63.9,57.2,47.8,58.8,49.4,42.2,94,76,54,29.68,29.19,28,4,28,0.53
2013-11-2,50.8,44.5,36.3,46.3,42.6,33.5,97,93,79,30.01,29.61,10,0,14,0.63
2013-11-3,37.7,33.3,27.7,34.0,25.5,21.6,90,73,55,30.56,30.01,10,1,10,0.00
2013-11-4,43.2,32.8,20.9,26.2,21.3,16.7,96,66,36,30.69,30.49,8,0,9,0.00
2013-11-5,59.0,45.3,31.2,36.4,29.3,20.8,73,54,39,30.51,30.35,8,0,8,0.00
2013-11-6,66.3,56.3,46.7,54.2,43.8,34.2,86,63,51,30.36,29.80,10,1,12,0.02
2013-11-7,58.4,44.1,37.7,55.0,37.7,29.7,94,79,59,30.00,29.79,14,1,14,0.49
2013-11-8,43.4,37.5,34.4,34.3,30.0,25.2,93,75,51,30.25,29.96,13,1,13,0.04
2013-11-9,49.5,41.9,33.6,41.0,31.4,27.9,88,67,49,30.24,29.79,12,1,12,0.02
2013-11-10,49.7,43.3,38.9,41.8,35.6,29.9,90,74,63,30.17,29.79,18,2,20,0.02
2013-11-11,45.5,37.2,29.1,36.9,31.4,27.1,95,80,55,30.18,29.94,16,1,16,0.30
2013-11-12,32.0,27.2,23.1,27.3,22.0,19.3,93,81,64,30.42,30.12,15,1,15,0.00
2013-11-13,37.9,28.9,16.2,26.2,20.3,13.4,90,71,53,30.46,30.10,13,2,14,0.06
2013-11-14,50.6,41.4,33.6,29.0,19.8,13.5,62,43,26,30.14,30.03,18,2,19,0.02
2013-11-15,52.4,45.9,39.6,27.3,21.9,17.9,47,38,31,30.14,30.07,8,0,8,0.00
2013-11-16,60.6,48.9,35.8,40.4,33.1,22.6,76,55,37,30.27,30.06,7,0,7,0.00
2013-11-17,60.6,55.4,48.8,54.8,49.4,40.3,92,81,70,30.06,29.38,16,2,18,0.36
2013-11-18,54.7,46.7,35.9,48.4,35.7,26.4,89,66,56,29.90,29.36,28,4,28,0.04
2013-11-19,36.5,33.5,25.6,30.3,25.8,21.2,86,73,59,30.48,29.90,16,1,16,0.00
2013-11-20,38.6,28.9,19.7,22.6,19.9,17.6,94,71,45,30.64,30.48,8,1,8,0.00
2013-11-21,45.1,37.6,24.8,37.1,25.5,15.0,88,62,48,30.50,30.28,9,0,9,0.02
2013-11-22,47.9,41.8,32.5,46.4,39.8,27.9,97,93,79,30.28,30.00,15,1,15,0.31
2013-11-23,35.5,27.4,17.6,28.1,21.2,10.1,92,78,48,30.22,30.02,18,2,18,0.00
2013-11-24,24.5,19.1,15.4,16.1,13.4,9.2,91,78,59,30.44,30.19,15,1,15,0.00
2013-11-25,33.7,27.2,16.6,22.2,14.3,10.1,85,61,37,30.44,30.14,14,1,14,0.00
2013-11-26,36.2,33.1,31.4,30.9,27.6,22.1,97,81,64,30.19,29.84,10,0,11,0.01
2013-11-27,31.4,31.4,31.4,30.6,30.6,30.6,97,97,97,29.84,29.80,0,0,0,0.00
2013-11-28,28.1,22.3,15.6,19.2,16.3,11.6,91,78,60,30.48,29.92,0,0,0,0.00
2013-11-29,28.4,20.7,10.7,21.0,15.1,8.4,93,80,55,30.81,30.48,0,0,0,0.00
2013-11-30,31.7,20.9,5.7,22.9,14.5,3.2,93,77,55,30.81,30.24,0,0,0,0.00